This is the latest recevied weather packets stored in our database for station/object DB0HRC-6. If no packets are shown the sender has not sent any weather packets the latest 10 day(s).
| Time | Temp. | Humidity | Pressure | Rain* | Wind** | Luminosity | Snow |
|---|---|---|---|---|---|---|---|
| 1777185904 | 6.67° C | 68% | 1021.2 hPa | 0 mm | - | - | - |
| 1777185004 | 6.11° C | 69% | 1020.9 hPa | 0 mm | - | - | - |
| 1777184105 | 6.11° C | 70% | 1020.8 hPa | 0 mm | - | - | - |
| 1777183204 | 5.56° C | 70% | 1020.5 hPa | 0 mm | - | - | - |
| 1777182304 | 5.56° C | 71% | 1020.4 hPa | 0 mm | - | - | - |
| 1777181404 | 5° C | 75% | 1020.3 hPa | 0 mm | - | - | - |
| 1777180505 | 3.89° C | 78% | 1019.9 hPa | 0 mm | - | - | - |
| 1777179605 | 3.33° C | 80% | 1019.6 hPa | 0 mm | - | - | - |
| 1777178705 | 2.78° C | 78% | 1019.4 hPa | 0 mm | - | - | - |
| 1777177804 | 3.89° C | 75% | 1019 hPa | 0 mm | - | - | - |
| 1777176906 | 3.89° C | 74% | 1018.8 hPa | 0 mm | - | - | - |
| 1777176003 | 3.89° C | 74% | 1018.4 hPa | 0 mm | - | - | - |
| 1777175104 | 4.44° C | 74% | 1018.4 hPa | 0 mm | - | - | - |
| 1777174205 | 4.44° C | 73% | 1018.4 hPa | 0 mm | - | - | - |
| 1777173304 | 4.44° C | 72% | 1018.1 hPa | 0 mm | - | - | - |
| 1777172404 | 5° C | 71% | 1018 hPa | 0 mm | - | - | - |
| 1777171504 | 5.56° C | 71% | 1017.8 hPa | 0 mm | - | - | - |
| 1777170604 | 5.56° C | 70% | 1017.6 hPa | 0 mm | - | - | - |
| 1777169704 | 5.56° C | 70% | 1017.5 hPa | 0 mm | - | - | - |
| 1777168804 | 5.56° C | 70% | 1017.1 hPa | 0 mm | - | - | - |
| 1777167904 | 5.56° C | 69% | 1017 hPa | 0 mm | - | - | - |
| 1777167004 | 5.56° C | 70% | 1016.9 hPa | 0 mm | - | - | - |
| 1777166104 | 5.56° C | 70% | 1016.7 hPa | 0 mm | - | - | - |
| 1777165203 | 5.56° C | 70% | 1016.5 hPa | 0 mm | - | - | - |
| 1777164304 | 5.56° C | 70% | 1016.4 hPa | 0 mm | - | - | - |
* Rain latest hour (hover to see other rain measurements)
** Current wind speed in m/s (hover to see current wind gust speed)